createdAt,value
2022-09-12T00:01:15.726Z,16.99
2022-09-12T00:03:42.598Z,16.97
2022-09-12T00:06:14.382Z,16.93
2022-09-12T00:08:40.706Z,16.91
2022-09-12T00:11:08.183Z,16.91
2022-09-12T00:13:37.317Z,16.87
2022-09-12T00:16:07.560Z,16.85
2022-09-12T00:18:34.201Z,16.85
2022-09-12T00:21:04.677Z,16.84
2022-09-12T00:23:32.027Z,16.83
2022-09-12T00:25:58.832Z,16.85
2022-09-12T00:28:25.378Z,16.82
2022-09-12T00:30:51.734Z,16.82
2022-09-12T00:33:18.547Z,16.79
2022-09-12T00:35:49.828Z,16.77
2022-09-12T00:38:16.576Z,16.74
2022-09-12T00:40:43.118Z,16.72
2022-09-12T00:43:14.303Z,16.69
2022-09-12T00:45:42.504Z,16.69
2022-09-12T00:48:15.246Z,16.70
2022-09-12T00:50:41.726Z,16.71
2022-09-12T00:53:08.561Z,16.70
2022-09-12T00:55:48.935Z,16.67
2022-09-12T00:58:34.268Z,16.65
2022-09-12T01:01:00.913Z,16.63
2022-09-12T01:03:27.423Z,16.62
2022-09-12T01:05:56.932Z,16.61
2022-09-12T01:08:24.778Z,16.61
2022-09-12T01:10:51.169Z,16.60
2022-09-12T01:13:17.766Z,16.58
2022-09-12T01:15:44.421Z,16.59
2022-09-12T01:18:10.731Z,16.63
2022-09-12T01:20:43.298Z,16.65
2022-09-12T01:23:45.165Z,16.69
2022-09-12T01:26:30.162Z,16.72
2022-09-12T01:29:15.480Z,16.72
2022-09-12T01:31:48.655Z,16.67
2022-09-12T01:34:20.757Z,16.70
2022-09-12T01:36:52.828Z,16.69
2022-09-12T01:39:37.851Z,16.66
2022-09-12T01:42:07.942Z,16.64
2022-09-12T01:44:37.569Z,16.65
2022-09-12T01:47:08.378Z,16.66
2022-09-12T01:49:56.005Z,16.64
2022-09-12T01:52:22.317Z,16.65
2022-09-12T01:54:56.269Z,16.65
2022-09-12T01:57:27.397Z,16.66
2022-09-12T01:59:57.261Z,16.67
2022-09-12T02:02:36.074Z,16.66
2022-09-12T02:05:10.478Z,16.68
2022-09-12T02:07:43.350Z,16.72
2022-09-12T02:10:13.282Z,16.72
2022-09-12T02:13:01.672Z,16.74
2022-09-12T02:15:30.482Z,16.76
2022-09-12T02:17:58.054Z,16.76
2022-09-12T02:20:46.915Z,16.75
2022-09-12T02:23:16.176Z,16.75
2022-09-12T02:25:47.117Z,16.74
2022-09-12T02:28:33.744Z,16.72
2022-09-12T02:31:03.236Z,16.71
2022-09-12T02:33:32.652Z,16.70
2022-09-12T02:36:04.570Z,16.67
2022-09-12T02:38:51.169Z,16.65
2022-09-12T02:41:19.722Z,16.64
2022-09-12T02:43:46.754Z,16.65
2022-09-12T02:46:22.010Z,16.63
2022-09-12T02:48:48.354Z,16.58
2022-09-12T02:51:14.754Z,16.55
2022-09-12T02:53:42.426Z,16.53
2022-09-12T02:56:13.113Z,16.50
2022-09-12T02:58:42.928Z,16.48
2022-09-12T03:01:12.285Z,16.48
2022-09-12T03:03:57.200Z,16.45
2022-09-12T03:06:29.732Z,16.42
2022-09-12T03:09:08.302Z,16.41
2022-09-12T03:11:37.580Z,16.40
2022-09-12T03:14:07.163Z,16.38
2022-09-12T03:16:51.765Z,16.37
2022-09-12T03:19:36.962Z,16.33
2022-09-12T03:22:15.674Z,16.28
2022-09-12T03:24:42.013Z,16.23
2022-09-12T03:27:08.910Z,16.19
2022-09-12T03:29:36.263Z,16.14
2022-09-12T03:32:02.637Z,16.08
2022-09-12T03:34:28.987Z,16.06
2022-09-12T03:36:55.744Z,16.06
2022-09-12T03:39:24.426Z,16.04
2022-09-12T03:41:51.150Z,16.02
2022-09-12T03:44:17.669Z,15.99
2022-09-12T03:46:44.258Z,15.95
2022-09-12T03:49:10.970Z,15.94
2022-09-12T03:51:37.881Z,15.94
2022-09-12T03:54:04.618Z,15.92
2022-09-12T03:56:30.942Z,15.90
2022-09-12T03:58:57.449Z,15.89
2022-09-12T04:01:24.056Z,15.87
2022-09-12T04:03:51.579Z,15.84
2022-09-12T04:06:22.155Z,15.84
2022-09-12T04:08:50.428Z,15.82
2022-09-12T04:11:17.208Z,15.78
2022-09-12T04:13:44.543Z,15.78
2022-09-12T04:16:11.749Z,15.75
2022-09-12T04:18:38.515Z,15.74
2022-09-12T04:21:06.008Z,15.73
2022-09-12T04:23:32.593Z,15.71
2022-09-12T04:26:00.241Z,15.68
2022-09-12T04:28:28.856Z,15.65
2022-09-12T04:30:55.886Z,15.59
2022-09-12T04:33:22.626Z,15.55
2022-09-12T04:35:48.926Z,15.53
2022-09-12T04:38:17.568Z,15.51
2022-09-12T04:40:43.922Z,15.50
2022-09-12T04:43:14.222Z,15.48
2022-09-12T04:45:41.004Z,15.48
2022-09-12T04:48:07.511Z,15.50
2022-09-12T04:50:33.856Z,15.51
2022-09-12T04:53:00.205Z,15.52
2022-09-12T04:55:26.622Z,15.53
2022-09-12T04:57:53.060Z,15.53
2022-09-12T05:00:20.487Z,15.53
2022-09-12T05:02:46.858Z,15.54
2022-09-12T05:05:13.453Z,15.54
2022-09-12T05:07:42.423Z,15.53
2022-09-12T05:10:09.166Z,15.51
2022-09-12T05:12:36.046Z,15.50
2022-09-12T05:15:02.575Z,15.50
2022-09-12T05:17:29.353Z,15.48
2022-09-12T05:19:55.951Z,15.49
2022-09-12T05:22:22.793Z,15.50
2022-09-12T05:24:50.691Z,15.52
2022-09-12T05:27:17.386Z,15.51
2022-09-12T05:29:43.797Z,15.54
2022-09-12T05:32:10.182Z,15.55
2022-09-12T05:34:37.842Z,15.59
2022-09-12T05:37:04.219Z,15.63
2022-09-12T05:39:30.629Z,15.65
2022-09-12T05:41:57.038Z,15.67
2022-09-12T05:44:24.804Z,15.70
2022-09-12T05:46:53.498Z,15.73
2022-09-12T05:49:21.344Z,15.76
2022-09-12T05:51:47.733Z,15.76
2022-09-12T05:54:15.557Z,15.79
2022-09-12T05:56:42.863Z,15.83
2022-09-12T05:59:13.741Z,15.87
2022-09-12T06:01:40.225Z,15.87
2022-09-12T06:04:07.199Z,15.92
2022-09-12T06:06:36.362Z,15.93
2022-09-12T06:09:03.663Z,15.95
2022-09-12T06:11:31.321Z,16.00
2022-09-12T06:13:58.318Z,16.01
2022-09-12T06:16:26.249Z,16.06
2022-09-12T06:18:53.834Z,16.09
2022-09-12T06:21:20.806Z,16.13
2022-09-12T06:23:47.983Z,16.12
2022-09-12T06:26:15.225Z,16.15
2022-09-12T06:28:42.191Z,16.19
2022-09-12T06:31:12.536Z,16.23
2022-09-12T06:33:40.350Z,16.24
2022-09-12T06:36:12.492Z,16.30
2022-09-12T06:38:39.835Z,16.35
2022-09-12T06:41:07.079Z,16.41
2022-09-12T06:43:33.713Z,16.48
2022-09-12T06:46:00.631Z,16.52
2022-09-12T06:48:27.652Z,16.55
2022-09-12T06:50:58.492Z,16.57
2022-09-12T06:53:25.845Z,16.64
2022-09-12T06:55:56.083Z,16.67
2022-09-12T06:58:22.538Z,16.73
2022-09-12T07:00:49.802Z,16.77
2022-09-12T07:03:16.129Z,16.76
2022-09-12T07:05:42.690Z,16.71
2022-09-12T07:08:09.146Z,16.81
2022-09-12T07:10:35.464Z,16.87
2022-09-12T07:13:01.760Z,17.00
2022-09-12T07:15:28.165Z,17.07
2022-09-12T07:17:54.482Z,17.17
2022-09-12T07:20:20.793Z,17.23
2022-09-12T07:22:47.086Z,17.29
2022-09-12T07:25:13.456Z,17.31
2022-09-12T07:27:39.830Z,17.39
2022-09-12T07:30:07.745Z,17.51
2022-09-12T07:32:34.069Z,17.58
2022-09-12T07:35:00.358Z,17.59
2022-09-12T07:37:29.667Z,17.67
2022-09-12T07:39:56.086Z,17.70
2022-09-12T07:42:22.439Z,17.75
2022-09-12T07:44:48.902Z,17.82
2022-09-12T07:47:15.253Z,17.89
2022-09-12T07:49:41.867Z,17.94
2022-09-12T07:52:08.945Z,18.01
2022-09-12T07:54:35.378Z,18.43
2022-09-12T07:57:01.936Z,18.86
2022-09-12T07:59:50.961Z,19.18
2022-09-12T08:02:17.085Z,19.46
2022-09-12T08:04:44.476Z,19.68
2022-09-12T08:07:10.751Z,19.85
2022-09-12T08:09:37.222Z,20.00
2022-09-12T08:12:03.646Z,20.21
2022-09-12T08:14:30.018Z,20.37
2022-09-12T08:16:56.377Z,20.55
2022-09-12T08:19:22.760Z,20.64
2022-09-12T08:21:49.138Z,20.60
2022-09-12T08:24:16.015Z,20.66
2022-09-12T08:26:43.073Z,20.78
2022-09-12T08:29:09.409Z,21.22
2022-09-12T08:31:36.939Z,21.56
2022-09-12T08:34:06.112Z,21.82
2022-09-12T08:36:32.789Z,21.98
2022-09-12T08:39:00.663Z,22.27
2022-09-12T08:41:46.440Z,22.30
2022-09-12T08:44:21.736Z,22.21
2022-09-12T08:47:06.434Z,22.25
2022-09-12T08:49:47.228Z,22.52
2022-09-12T08:52:23.979Z,22.52
2022-09-12T08:54:50.612Z,22.62
2022-09-12T08:57:19.000Z,22.76
2022-09-12T08:59:46.105Z,22.61
2022-09-12T09:02:28.574Z,22.74
2022-09-12T09:05:05.799Z,22.67
2022-09-12T09:07:52.553Z,22.68
2022-09-12T09:10:32.696Z,22.74
2022-09-12T09:13:02.097Z,22.92
2022-09-12T09:15:52.760Z,23.15
2022-09-12T09:18:29.277Z,23.37
2022-09-12T09:21:10.569Z,23.59
2022-09-12T09:23:40.406Z,24.03
2022-09-12T09:26:12.773Z,24.55
2022-09-12T09:28:46.925Z,24.42
2022-09-12T09:31:17.829Z,24.23
2022-09-12T09:33:46.235Z,24.40
2022-09-12T09:36:15.721Z,24.73
2022-09-12T09:38:47.719Z,24.95
2022-09-12T09:41:20.179Z,25.17
2022-09-12T09:43:46.607Z,25.53
2022-09-12T09:46:14.169Z,25.79
2022-09-12T09:48:42.919Z,25.94
2022-09-12T09:51:09.555Z,26.09
2022-09-12T09:53:50.354Z,26.51
2022-09-12T09:56:33.018Z,26.98
2022-09-12T09:59:18.125Z,27.26
2022-09-12T10:01:59.975Z,27.25
2022-09-12T10:04:27.895Z,27.07
2022-09-12T10:06:56.161Z,27.23
2022-09-12T10:09:29.961Z,27.44
2022-09-12T10:11:56.784Z,27.95
2022-09-12T10:14:27.906Z,28.35
2022-09-12T10:16:54.415Z,28.58
2022-09-12T10:19:32.961Z,28.82
2022-09-12T10:22:00.865Z,28.90
2022-09-12T10:24:30.593Z,29.06
2022-09-12T10:27:05.120Z,29.00
2022-09-12T10:29:32.384Z,29.14
2022-09-12T10:32:04.814Z,29.19
2022-09-12T10:34:35.843Z,29.39
2022-09-12T10:37:09.313Z,29.47
2022-09-12T10:39:38.338Z,29.57
2022-09-12T10:42:05.589Z,29.63
2022-09-12T10:44:33.622Z,29.61
2022-09-12T10:47:19.179Z,29.58
2022-09-12T10:49:45.569Z,29.58
2022-09-12T10:52:21.760Z,29.81
2022-09-12T10:54:49.364Z,30.10
2022-09-12T10:57:25.002Z,30.24
2022-09-12T11:00:00.237Z,30.20
2022-09-12T11:02:33.745Z,30.42
2022-09-12T11:05:03.683Z,30.90
2022-09-12T11:07:41.865Z,30.79
2022-09-12T11:10:22.605Z,30.54
2022-09-12T11:12:53.557Z,30.85
2022-09-12T11:15:32.084Z,30.96
2022-09-12T11:18:17.377Z,31.46
2022-09-12T11:21:10.274Z,31.59
2022-09-12T11:23:39.428Z,31.61
2022-09-12T11:26:08.739Z,31.76
2022-09-12T11:28:46.696Z,32.02
2022-09-12T11:31:19.543Z,32.30
2022-09-12T11:33:47.671Z,32.44
2022-09-12T11:36:26.516Z,32.61
2022-09-12T11:39:01.669Z,32.04
2022-09-12T11:41:50.601Z,31.78
2022-09-12T11:44:17.967Z,31.81
2022-09-12T11:46:47.699Z,31.42
2022-09-12T11:49:35.276Z,31.72
2022-09-12T11:52:05.290Z,31.78
2022-09-12T11:54:52.820Z,31.53
2022-09-12T11:57:25.785Z,31.49
2022-09-12T11:59:59.743Z,31.48
2022-09-12T12:02:27.879Z,31.70
2022-09-12T12:05:15.241Z,31.63
2022-09-12T12:07:45.661Z,31.51
2022-09-12T12:10:22.131Z,31.65
2022-09-12T12:12:49.187Z,31.80
2022-09-12T12:15:16.850Z,31.85
2022-09-12T12:17:43.257Z,31.91
2022-09-12T12:20:15.785Z,31.72
2022-09-12T12:22:51.594Z,31.56
2022-09-12T12:25:21.590Z,31.44
2022-09-12T12:27:56.669Z,31.53
2022-09-12T12:30:29.005Z,31.90
2022-09-12T12:33:02.301Z,31.31
2022-09-12T12:35:37.594Z,31.23
2022-09-12T12:38:05.705Z,31.56
2022-09-12T12:40:32.748Z,31.81
2022-09-12T12:43:01.483Z,31.63
2022-09-12T12:45:28.160Z,31.68
2022-09-12T12:47:54.655Z,31.78
2022-09-12T12:50:26.505Z,31.36
2022-09-12T12:52:56.110Z,30.89
2022-09-12T12:55:49.990Z,31.31
2022-09-12T12:58:19.434Z,31.53
2022-09-12T13:00:46.412Z,31.51
2022-09-12T13:03:39.119Z,31.44
2022-09-12T13:06:07.214Z,31.51
2022-09-12T13:08:36.033Z,31.47
2022-09-12T13:11:04.897Z,31.46
2022-09-12T13:13:34.193Z,31.54
2022-09-12T13:16:00.766Z,31.70
2022-09-12T13:18:40.878Z,31.38
2022-09-12T13:21:12.696Z,31.56
2022-09-12T13:23:40.100Z,31.24
2022-09-12T13:26:14.222Z,31.06
2022-09-12T13:28:40.658Z,30.90
2022-09-12T13:31:21.999Z,31.01
2022-09-12T13:33:50.829Z,30.92
2022-09-12T13:36:20.310Z,30.80
2022-09-12T13:38:46.797Z,30.91
2022-09-12T13:41:32.407Z,31.02
2022-09-12T13:43:59.409Z,31.08
2022-09-12T13:46:31.361Z,30.94
2022-09-12T13:48:59.939Z,30.69
2022-09-12T13:51:29.022Z,30.71
2022-09-12T13:53:58.279Z,30.72
2022-09-12T13:56:25.180Z,30.72
2022-09-12T13:58:54.053Z,30.62
2022-09-12T14:01:22.175Z,30.57
2022-09-12T14:04:12.348Z,30.37
2022-09-12T14:06:45.703Z,29.90
2022-09-12T14:09:19.778Z,29.76
2022-09-12T14:11:52.035Z,29.75
2022-09-12T14:14:23.113Z,29.89
2022-09-12T14:16:50.158Z,30.05
2022-09-12T14:19:19.188Z,30.24
2022-09-12T14:21:45.971Z,30.07
2022-09-12T14:24:13.902Z,30.16
2022-09-12T14:26:42.017Z,30.00
2022-09-12T14:29:08.805Z,29.98
2022-09-12T14:31:36.809Z,29.70
2022-09-12T14:34:16.588Z,29.73
2022-09-12T14:36:55.057Z,29.74
2022-09-12T14:39:30.662Z,29.60
2022-09-12T14:42:10.996Z,29.46
2022-09-12T14:44:39.050Z,29.51
2022-09-12T14:47:19.633Z,29.54
2022-09-12T14:49:47.928Z,29.25
2022-09-12T14:52:33.100Z,29.00
2022-09-12T14:55:20.207Z,29.00
2022-09-12T14:57:47.832Z,28.64
2022-09-12T15:00:14.236Z,28.53
2022-09-12T15:02:41.556Z,28.33
2022-09-12T15:05:08.061Z,28.59
2022-09-12T15:07:56.305Z,28.53
2022-09-12T15:10:25.469Z,28.35
2022-09-12T15:13:04.386Z,28.27
2022-09-12T15:15:30.734Z,28.25
2022-09-12T15:17:57.261Z,28.05
2022-09-12T15:20:24.001Z,27.92
2022-09-12T15:22:51.233Z,27.85
2022-09-12T15:25:18.099Z,27.88
2022-09-12T15:27:47.452Z,27.66
2022-09-12T15:30:14.003Z,27.57
2022-09-12T15:32:42.042Z,27.30
2022-09-12T15:35:11.153Z,27.24
2022-09-12T15:37:37.451Z,27.23
2022-09-12T15:40:06.774Z,27.19
2022-09-12T15:42:33.178Z,27.15
2022-09-12T15:45:02.778Z,27.13
2022-09-12T15:47:29.262Z,27.15
2022-09-12T15:49:55.688Z,27.16
2022-09-12T15:52:21.992Z,27.08
2022-09-12T15:54:48.445Z,27.05
2022-09-12T15:57:14.779Z,26.99
2022-09-12T15:59:41.078Z,26.89
2022-09-12T16:02:08.925Z,26.95
2022-09-12T16:04:35.208Z,26.89
2022-09-12T16:07:01.618Z,26.87
2022-09-12T16:09:27.927Z,26.82
2022-09-12T16:11:54.368Z,26.83
2022-09-12T16:14:20.699Z,26.85
2022-09-12T16:16:54.176Z,26.86
2022-09-12T16:19:20.888Z,26.85
2022-09-12T16:21:47.172Z,26.80
2022-09-12T16:24:13.710Z,26.79
2022-09-12T16:26:40.111Z,26.76
2022-09-12T16:29:06.697Z,26.65
2022-09-12T16:31:33.082Z,26.57
2022-09-12T16:33:59.524Z,26.47
2022-09-12T16:36:25.945Z,26.34
2022-09-12T16:38:53.528Z,26.24
2022-09-12T16:41:21.316Z,26.20
2022-09-12T16:43:48.017Z,26.16
2022-09-12T16:46:15.872Z,26.11
2022-09-12T16:48:48.100Z,26.13
2022-09-12T16:51:20.141Z,26.17
2022-09-12T16:53:46.957Z,26.11
2022-09-12T16:56:13.280Z,26.05
2022-09-12T16:58:42.025Z,26.02
2022-09-12T17:01:13.287Z,25.92
2022-09-12T17:03:40.004Z,25.91
2022-09-12T17:06:07.887Z,25.83
2022-09-12T17:08:35.349Z,25.82
2022-09-12T17:11:02.572Z,25.70
2022-09-12T17:13:46.592Z,25.66
2022-09-12T17:16:15.455Z,25.56
2022-09-12T17:18:42.169Z,25.52
2022-09-12T17:21:09.562Z,25.46
2022-09-12T17:23:36.164Z,25.43
2022-09-12T17:26:02.949Z,25.38
2022-09-12T17:28:29.892Z,25.33
2022-09-12T17:30:57.181Z,25.31
2022-09-12T17:33:23.971Z,25.24
2022-09-12T17:35:50.722Z,25.18
2022-09-12T17:38:20.194Z,25.15
2022-09-12T17:40:58.954Z,25.08
2022-09-12T17:43:26.072Z,25.04
2022-09-12T17:45:56.268Z,24.97
2022-09-12T17:48:22.713Z,24.92
2022-09-12T17:50:49.043Z,24.88
2022-09-12T17:53:15.314Z,24.85
2022-09-12T17:55:41.891Z,24.79
2022-09-12T17:58:08.175Z,24.73
2022-09-12T18:00:53.449Z,24.70
2022-09-12T18:03:23.294Z,24.65
2022-09-12T18:05:52.660Z,24.59
2022-09-12T18:08:19.794Z,24.51
2022-09-12T18:10:46.336Z,24.46
2022-09-12T18:13:12.947Z,24.42
2022-09-12T18:15:39.371Z,24.39
2022-09-12T18:18:05.955Z,24.34
2022-09-12T18:20:32.621Z,24.28
2022-09-12T18:22:59.145Z,24.29
2022-09-12T18:25:25.580Z,24.25
2022-09-12T18:27:52.357Z,24.22
2022-09-12T18:30:22.106Z,24.16
2022-09-12T18:32:48.909Z,24.13
2022-09-12T18:35:15.388Z,24.11
2022-09-12T18:37:41.962Z,24.07
2022-09-12T18:40:09.173Z,24.04
2022-09-12T18:42:35.549Z,24.00
2022-09-12T18:45:01.827Z,23.98
2022-09-12T18:47:28.633Z,23.96
2022-09-12T18:49:55.215Z,23.91
2022-09-12T18:52:21.503Z,23.85
2022-09-12T18:54:47.835Z,23.77
2022-09-12T18:57:14.211Z,23.68
2022-09-12T18:59:40.595Z,23.63
2022-09-12T19:02:07.035Z,23.59
2022-09-12T19:04:33.926Z,23.52
2022-09-12T19:07:01.463Z,23.42
2022-09-12T19:09:29.006Z,23.45
2022-09-12T19:11:55.320Z,23.42
2022-09-12T19:14:22.834Z,23.42
2022-09-12T19:16:50.719Z,23.40
2022-09-12T19:19:17.108Z,23.38
2022-09-12T19:21:43.812Z,23.34
2022-09-12T19:24:10.424Z,23.33
2022-09-12T19:26:37.735Z,23.30
2022-09-12T19:29:04.503Z,23.28
2022-09-12T19:31:31.517Z,23.25
2022-09-12T19:34:02.100Z,23.21
2022-09-12T19:36:44.274Z,23.17
2022-09-12T19:39:11.538Z,23.16
2022-09-12T19:41:37.901Z,23.09
2022-09-12T19:44:04.894Z,23.05
2022-09-12T19:46:31.703Z,22.98
2022-09-12T19:48:58.172Z,22.91
2022-09-12T19:51:24.565Z,22.87
2022-09-12T19:53:51.555Z,22.84
2022-09-12T19:56:18.178Z,22.81
2022-09-12T19:58:45.588Z,22.75
2022-09-12T20:01:20.278Z,22.72
2022-09-12T20:03:47.050Z,22.67
2022-09-12T20:06:17.280Z,22.64
2022-09-12T20:08:44.006Z,22.64
2022-09-12T20:11:11.517Z,22.62
2022-09-12T20:13:37.872Z,22.59
2022-09-12T20:16:11.791Z,22.56
2022-09-12T20:18:38.354Z,22.53
2022-09-12T20:21:10.823Z,22.55
2022-09-12T20:23:37.172Z,22.61
2022-09-12T20:26:04.144Z,22.65
2022-09-12T20:28:31.173Z,22.67
2022-09-12T20:31:01.443Z,22.70
2022-09-12T20:33:27.858Z,22.71
2022-09-12T20:36:00.317Z,22.72
2022-09-12T20:38:26.760Z,22.74
2022-09-12T20:40:53.115Z,22.76
2022-09-12T20:43:19.500Z,22.78
2022-09-12T20:45:45.796Z,22.84
2022-09-12T20:48:12.076Z,22.85
2022-09-12T20:50:38.381Z,22.82
2022-09-12T20:53:05.215Z,22.83
2022-09-12T20:55:31.601Z,22.83
2022-09-12T20:57:58.238Z,22.78
2022-09-12T21:00:24.557Z,22.78
2022-09-12T21:02:51.230Z,22.78
2022-09-12T21:05:17.613Z,22.77
2022-09-12T21:07:43.956Z,22.76
2022-09-12T21:10:10.455Z,22.72
2022-09-12T21:12:37.554Z,22.71
2022-09-12T21:15:04.041Z,22.71
2022-09-12T21:17:30.441Z,22.70
2022-09-12T21:19:57.003Z,22.68
2022-09-12T21:22:23.335Z,22.65
2022-09-12T21:24:49.606Z,22.67
2022-09-12T21:27:15.893Z,22.66
2022-09-12T21:29:42.187Z,22.64
2022-09-12T21:32:13.450Z,22.65
2022-09-12T21:34:41.707Z,22.63
2022-09-12T21:37:07.972Z,22.64
2022-09-12T21:39:34.293Z,22.67
2022-09-12T21:42:00.983Z,22.65
2022-09-12T21:44:27.322Z,22.63
2022-09-12T21:46:53.787Z,22.63
2022-09-12T21:49:20.155Z,22.62
2022-09-12T21:51:46.614Z,22.64
2022-09-12T21:54:12.928Z,22.65
2022-09-12T21:56:39.613Z,22.66
2022-09-12T21:59:05.901Z,22.66
2022-09-12T22:01:32.227Z,22.65
2022-09-12T22:03:58.627Z,22.67
2022-09-12T22:06:24.973Z,22.66
2022-09-12T22:08:51.305Z,22.64
2022-09-12T22:11:18.906Z,22.63
2022-09-12T22:13:45.248Z,22.62
2022-09-12T22:16:11.999Z,22.60
2022-09-12T22:18:38.415Z,22.58
2022-09-12T22:21:06.441Z,22.56
2022-09-12T22:23:51.497Z,22.52
2022-09-12T22:26:18.097Z,22.52
2022-09-12T22:28:44.741Z,22.51
2022-09-12T22:31:11.966Z,22.48
2022-09-12T22:33:38.738Z,22.48
2022-09-12T22:36:05.517Z,22.47
2022-09-12T22:38:31.836Z,22.47
2022-09-12T22:40:59.099Z,22.44
2022-09-12T22:43:25.732Z,22.40
2022-09-12T22:45:52.207Z,22.34
2022-09-12T22:48:18.531Z,22.32
2022-09-12T22:50:45.676Z,22.26
2022-09-12T22:53:12.050Z,22.25
2022-09-12T22:55:38.373Z,22.22
2022-09-12T22:58:04.701Z,22.20
2022-09-12T23:00:31.073Z,22.16
2022-09-12T23:02:58.286Z,22.13
2022-09-12T23:05:24.695Z,22.12
2022-09-12T23:07:51.016Z,22.10
2022-09-12T23:10:17.389Z,22.09
2022-09-12T23:12:43.738Z,22.07
2022-09-12T23:15:10.330Z,22.04
2022-09-12T23:17:36.924Z,22.05
2022-09-12T23:20:04.541Z,22.03
2022-09-12T23:22:30.882Z,22.02
2022-09-12T23:24:57.184Z,22.02
2022-09-12T23:27:25.891Z,22.00
2022-09-12T23:29:52.288Z,21.99
2022-09-12T23:32:19.992Z,21.95
2022-09-12T23:34:47.184Z,21.96
2022-09-12T23:37:13.504Z,21.96
2022-09-12T23:39:39.898Z,21.96
2022-09-12T23:42:06.302Z,21.93
2022-09-12T23:44:32.631Z,21.93
2022-09-12T23:46:59.068Z,21.88
2022-09-12T23:49:25.374Z,21.87
2022-09-12T23:51:51.676Z,21.84
2022-09-12T23:54:17.989Z,21.81
2022-09-12T23:56:44.327Z,21.77
2022-09-12T23:59:10.658Z,21.72
